メインページ
METAR-TAF:

METAR-TAF

空港 :

キャデラック, ミシガン州, アメリカ合衆国

緯度: 44-17N, 経度: 085-25W, 海抜: 398m

現時点の気象観測

当レポートは24分前の19:19(UTC)に作成
西/南西の風 8kt、最大15ktの突風を伴う
気温 33°C
湿度 46%
気圧 1010 hPa
視程: 16.1km
高度4000ftの千切れ雲あり

METAR: KCAD 191919Z AUTO 25008G15KT 10SM BKN040 33/20 A2982 RMK AO2 T03370204

時間: 15:43 (19:43 UTC)


TAF: 見つかりません

4,000以上の空港の気象観測と天気予報(METAR報とTAF報)

利用可能な観測所は地図上に黄色い丸と赤い丸で示す。

丸の上にカーソルを重ねると観測所名を参照できる。

次にクリックすると気象観測と天気予報を参照できる。

マップの切り替え:黒色「×」印の緑ボタンをクリックして拡大、「-」印の緑ボタンをクリックして縮小、緑色の三角印をクリックして隣りの地図に切り替え


METAR-TAF: